VTUU/UBP METAR and TAF weather

Enter ICAO airport designator
Station Type Date Time Source
VTUU METAR 2020/12/01 21:00 UTC NOAA

VTUU 012100Z 04009KT CAVOK 22/18 Q1013 NOSIG


Station Type Date Time Source
VTUU Decoded METAR 2020/12/01 21:00 UTC NOAA

Ubon Ratchathani, Thailand (VTUU) 15-15N 104-52E 127M
Dec 01, 2020 - 04:00 PM EST / 2020.12.01 2100 UTC
Wind: from the NE (040 degrees) at 10 MPH (9 KT):0
Visibility: greater than 7 mile(s):0
Temperature: 71 F (22 C)
Dew Point: 64 F (18 C)
Relative Humidity: 78%
Pressure (altimeter): 29.91 in. Hg (1013 hPa)
ob: VTUU 012100Z 04009KT CAVOK 22/18 Q1013 NOSIG
cycle: 21

Station Type Date Time Source
VTUU TAF 2020/12/01 18:37 UTC NOAA

TAF VTUU 011700Z 0118/0218 04010KT 9999 FEW040

Example: see airport list